Alexander, Illinois
Current Conditions -  °F | °C
As of 11:15 PM on Friday 24 Oct 2014 (Local Time) from KIJX Reporting Station
Overcast Overcast  
Wind Chill: 64°   Ceiling: 4600
Heat Index: 64°   Visibility: 10mi
Dew Point: 52°   Wind: 7mph
Humidity: 64%   Direction: 210°SSW
Pressure: 29.97"   Gusts: NA
Location:  39.72°N, 90.04°W
Report Text: KIJX 250415Z AUTO 21006KT 10SM SCT039 OVC046 18/11 A2997 RMK AO2 T01800110
Loading
Personal Weather Stations






























Interactive Weather Map
Tropical Storm Tracking
New forecast layout! Learn more

10-Day Weather Forecast

Advertisements
Track Severe Weather on mobile